createdAt,value
2022-12-18T00:00:43.527Z,0.00
2022-12-18T00:01:43.626Z,0.00
2022-12-18T00:02:43.565Z,0.00
2022-12-18T00:03:44.013Z,0.00
2022-12-18T00:04:43.543Z,0.00
2022-12-18T00:05:43.490Z,0.00
2022-12-18T00:06:43.498Z,0.00
2022-12-18T00:07:43.461Z,0.00
2022-12-18T00:08:43.464Z,0.00
2022-12-18T00:09:43.741Z,0.00
2022-12-18T00:10:43.411Z,0.00
2022-12-18T00:11:43.418Z,0.00
2022-12-18T00:12:43.421Z,0.00
2022-12-18T00:13:43.414Z,0.00
2022-12-18T00:14:43.377Z,0.00
2022-12-18T00:15:43.453Z,0.00
2022-12-18T00:16:43.414Z,0.00
2022-12-18T00:17:43.367Z,0.00
2022-12-18T00:18:43.371Z,0.00
2022-12-18T00:19:43.321Z,0.00
2022-12-18T00:20:43.340Z,0.00
2022-12-18T00:21:43.363Z,0.00
2022-12-18T00:22:43.306Z,0.00
2022-12-18T00:23:43.631Z,0.00
2022-12-18T00:24:43.280Z,0.00
2022-12-18T00:25:43.258Z,0.00
2022-12-18T00:26:43.286Z,0.00
2022-12-18T00:27:43.264Z,0.00
2022-12-18T00:28:43.331Z,0.00
2022-12-18T00:29:43.232Z,0.00
2022-12-18T00:30:43.264Z,0.00
2022-12-18T00:31:43.318Z,0.00
2022-12-18T00:32:43.226Z,0.00
2022-12-18T00:33:43.184Z,0.00
2022-12-18T00:34:43.177Z,0.00
2022-12-18T00:35:43.181Z,0.00
2022-12-18T00:36:43.196Z,0.00
2022-12-18T00:37:43.148Z,0.00
2022-12-18T00:38:43.167Z,0.00
2022-12-18T00:39:43.135Z,0.00
2022-12-18T00:40:43.142Z,0.00
2022-12-18T00:41:43.104Z,0.00
2022-12-18T00:42:43.119Z,0.00
2022-12-18T00:43:43.226Z,0.00
2022-12-18T00:44:43.076Z,0.00
2022-12-18T00:45:49.924Z,0.00
2022-12-18T00:46:43.792Z,0.00
2022-12-18T00:47:43.685Z,0.00
2022-12-18T00:48:43.063Z,0.00
2022-12-18T00:49:43.030Z,0.00
2022-12-18T00:50:43.015Z,0.00
2022-12-18T00:51:43.027Z,0.00
2022-12-18T00:52:43.025Z,0.00
2022-12-18T00:53:42.993Z,0.00
2022-12-18T00:54:42.977Z,0.00
2022-12-18T00:55:42.997Z,0.00
2022-12-18T00:56:49.270Z,0.00
2022-12-18T00:57:42.967Z,0.00
2022-12-18T00:58:42.971Z,0.00
2022-12-18T00:59:42.931Z,0.00
2022-12-18T01:00:42.981Z,0.00
2022-12-18T01:01:43.103Z,0.00
2022-12-18T01:02:43.149Z,0.00
2022-12-18T01:03:42.914Z,0.00
2022-12-18T01:04:42.892Z,0.00
2022-12-18T01:05:42.882Z,0.00
2022-12-18T01:06:42.863Z,0.00
2022-12-18T01:07:42.871Z,0.00
2022-12-18T01:08:42.848Z,0.00
2022-12-18T01:09:42.851Z,0.00
2022-12-18T01:10:42.829Z,0.00
2022-12-18T01:11:42.843Z,0.00
2022-12-18T01:12:42.808Z,0.00
2022-12-18T01:13:42.822Z,0.00
2022-12-18T01:14:42.788Z,0.00
2022-12-18T01:15:42.786Z,0.00
2022-12-18T01:16:42.888Z,0.00
2022-12-18T01:17:42.763Z,0.00
2022-12-18T01:18:42.757Z,0.00
2022-12-18T01:19:42.753Z,0.00
2022-12-18T01:20:42.732Z,0.00
2022-12-18T01:21:42.771Z,0.00
2022-12-18T01:22:42.709Z,0.00
2022-12-18T01:23:42.881Z,0.00
2022-12-18T01:24:42.687Z,0.00
2022-12-18T01:25:42.685Z,0.00
2022-12-18T01:26:42.730Z,0.00
2022-12-18T01:27:42.681Z,0.00
2022-12-18T01:28:42.647Z,0.00
2022-12-18T01:29:42.643Z,0.00
2022-12-18T01:30:42.641Z,0.00
2022-12-18T01:31:42.752Z,0.00
2022-12-18T01:32:42.609Z,0.00
2022-12-18T01:33:42.602Z,0.00
2022-12-18T01:34:42.594Z,0.00
2022-12-18T01:35:42.585Z,0.00
2022-12-18T01:36:42.580Z,0.00
2022-12-18T01:37:42.633Z,0.00
2022-12-18T01:38:42.560Z,0.00
2022-12-18T01:39:42.547Z,0.00
2022-12-18T01:40:42.538Z,0.00
2022-12-18T01:41:42.536Z,0.00
2022-12-18T01:42:42.543Z,0.00
2022-12-18T01:43:42.515Z,0.00
2022-12-18T01:44:42.490Z,0.00
2022-12-18T01:45:42.568Z,0.00
2022-12-18T01:46:42.496Z,0.00
2022-12-18T01:47:42.486Z,0.00
2022-12-18T01:48:42.464Z,0.00
2022-12-18T01:49:42.449Z,0.00
2022-12-18T01:50:42.435Z,0.00
2022-12-18T01:51:42.450Z,0.00
2022-12-18T01:52:42.419Z,0.00
2022-12-18T01:53:42.412Z,0.00
2022-12-18T01:54:42.408Z,0.00
2022-12-18T01:55:42.394Z,0.00
2022-12-18T01:56:42.551Z,0.00
2022-12-18T01:57:42.386Z,0.00
2022-12-18T01:58:42.361Z,0.00
2022-12-18T01:59:42.351Z,0.00
2022-12-18T02:00:42.375Z,0.00
2022-12-18T02:01:42.493Z,0.00
2022-12-18T02:02:42.436Z,0.00
2022-12-18T02:03:42.475Z,0.00
2022-12-18T02:04:47.795Z,0.00
2022-12-18T02:05:42.327Z,0.00
2022-12-18T02:06:42.336Z,0.00
2022-12-18T02:07:42.281Z,0.00
2022-12-18T02:08:42.270Z,0.00
2022-12-18T02:09:42.255Z,0.00
2022-12-18T02:10:42.246Z,0.00
2022-12-18T02:11:42.252Z,0.00
2022-12-18T02:12:42.223Z,0.00
2022-12-18T02:13:42.239Z,0.00
2022-12-18T02:14:42.263Z,0.00
2022-12-18T02:15:42.224Z,0.00
2022-12-18T02:16:42.270Z,0.00
2022-12-18T02:17:42.237Z,0.00
2022-12-18T02:18:42.169Z,0.00
2022-12-18T02:19:42.162Z,0.00
2022-12-18T02:20:42.166Z,0.00
2022-12-18T02:21:42.166Z,0.00
2022-12-18T02:22:42.127Z,0.00
2022-12-18T02:23:42.313Z,0.00
2022-12-18T02:24:42.113Z,0.00
2022-12-18T02:25:42.110Z,0.00
2022-12-18T02:26:42.139Z,0.00
2022-12-18T02:27:42.080Z,0.00
2022-12-18T02:28:42.076Z,0.00
2022-12-18T02:29:42.062Z,0.00
2022-12-18T02:30:42.109Z,0.00
2022-12-18T02:31:42.053Z,0.00
2022-12-18T02:32:42.029Z,0.00
2022-12-18T02:33:42.253Z,0.00
2022-12-18T02:34:42.009Z,0.00
2022-12-18T02:35:42.004Z,0.00
2022-12-18T02:36:41.993Z,0.00
2022-12-18T02:37:41.986Z,0.00
2022-12-18T02:38:41.980Z,0.00
2022-12-18T02:39:41.962Z,0.00
2022-12-18T02:40:41.972Z,0.00
2022-12-18T02:41:41.960Z,0.00
2022-12-18T02:42:41.934Z,0.00
2022-12-18T02:43:42.047Z,0.00
2022-12-18T02:44:41.912Z,0.00
2022-12-18T02:45:41.969Z,0.00
2022-12-18T02:46:41.932Z,0.00
2022-12-18T02:47:41.890Z,0.00
2022-12-18T02:48:41.880Z,0.00
2022-12-18T02:49:41.871Z,0.00
2022-12-18T02:50:41.899Z,0.00
2022-12-18T02:51:41.867Z,0.00
2022-12-18T02:52:41.907Z,0.00
2022-12-18T02:53:42.158Z,0.00
2022-12-18T02:54:41.822Z,0.00
2022-12-18T02:55:41.822Z,0.00
2022-12-18T02:56:41.807Z,0.00
2022-12-18T02:57:41.793Z,0.00
2022-12-18T02:58:41.789Z,0.00
2022-12-18T02:59:41.770Z,0.00
2022-12-18T03:00:41.764Z,0.00
2022-12-18T03:01:41.879Z,0.00
2022-12-18T03:02:41.949Z,0.00
2022-12-18T03:03:42.182Z,0.00
2022-12-18T03:04:41.733Z,0.00
2022-12-18T03:05:41.720Z,0.00
2022-12-18T03:06:41.722Z,0.00
2022-12-18T03:07:41.764Z,0.00
2022-12-18T03:08:41.676Z,0.00
2022-12-18T03:09:41.678Z,0.00
2022-12-18T03:10:41.674Z,0.00
2022-12-18T03:11:41.693Z,0.00
2022-12-18T03:12:41.636Z,0.00
2022-12-18T03:13:42.026Z,0.00
2022-12-18T03:14:41.622Z,0.00
2022-12-18T03:15:41.618Z,0.00
2022-12-18T03:16:41.680Z,0.00
2022-12-18T03:17:41.595Z,0.00
2022-12-18T03:18:41.583Z,0.00
2022-12-18T03:19:41.579Z,0.00
2022-12-18T03:20:41.559Z,0.00
2022-12-18T03:21:41.581Z,0.00
2022-12-18T03:22:41.554Z,0.00
2022-12-18T03:23:41.848Z,0.00
2022-12-18T03:24:41.526Z,0.00
2022-12-18T03:25:41.523Z,0.00
2022-12-18T03:26:41.510Z,0.00
2022-12-18T03:27:41.533Z,0.00
2022-12-18T03:28:41.489Z,0.00
2022-12-18T03:29:41.486Z,0.00
2022-12-18T03:30:41.512Z,0.00
2022-12-18T03:31:41.464Z,0.00
2022-12-18T03:32:41.471Z,0.00
2022-12-18T03:33:41.865Z,0.00
2022-12-18T03:34:41.438Z,0.00
2022-12-18T03:35:41.426Z,0.00
2022-12-18T03:36:41.413Z,0.00
2022-12-18T03:37:41.465Z,0.00
2022-12-18T03:38:41.399Z,0.00
2022-12-18T03:39:41.388Z,0.00
2022-12-18T03:40:41.385Z,0.00
2022-12-18T03:41:41.367Z,0.00
2022-12-18T03:42:41.367Z,0.00
2022-12-18T03:43:41.940Z,0.00
2022-12-18T03:44:41.338Z,0.00
2022-12-18T03:45:41.367Z,0.00
2022-12-18T03:46:41.342Z,0.00
2022-12-18T03:47:41.333Z,0.00
2022-12-18T03:48:41.326Z,0.00
2022-12-18T03:49:41.298Z,0.00
2022-12-18T03:50:41.273Z,0.00
2022-12-18T03:51:41.290Z,0.00
2022-12-18T03:52:41.267Z,0.00
2022-12-18T03:53:41.800Z,0.00
2022-12-18T03:54:41.234Z,0.00
2022-12-18T03:55:41.230Z,0.00
2022-12-18T03:56:41.239Z,0.00
2022-12-18T03:57:41.281Z,0.00
2022-12-18T03:58:41.597Z,0.00
2022-12-18T03:59:41.193Z,0.00
2022-12-18T04:00:41.188Z,0.00
2022-12-18T04:01:41.253Z,0.00
2022-12-18T04:02:41.320Z,0.00
2022-12-18T04:03:41.510Z,0.00
2022-12-18T04:04:41.144Z,0.00
2022-12-18T04:05:41.150Z,0.00
2022-12-18T04:06:41.132Z,0.00
2022-12-18T04:07:41.146Z,0.00
2022-12-18T04:08:41.102Z,0.00
2022-12-18T04:09:41.111Z,0.00
2022-12-18T04:10:41.080Z,0.00
2022-12-18T04:11:41.076Z,0.00
2022-12-18T04:12:41.091Z,0.00
2022-12-18T04:13:41.579Z,0.00
2022-12-18T04:14:41.043Z,0.00
2022-12-18T04:15:41.064Z,0.00
2022-12-18T04:16:41.053Z,0.00
2022-12-18T04:17:41.109Z,0.00
2022-12-18T04:18:41.011Z,0.00
2022-12-18T04:19:41.021Z,0.00
2022-12-18T04:20:40.999Z,0.00
2022-12-18T04:21:40.992Z,0.00
2022-12-18T04:22:40.983Z,0.00
2022-12-18T04:23:41.463Z,0.00
2022-12-18T04:24:40.954Z,0.00
2022-12-18T04:25:40.944Z,0.00
2022-12-18T04:26:40.937Z,0.00
2022-12-18T04:27:40.984Z,0.00
2022-12-18T04:28:40.914Z,0.00
2022-12-18T04:29:40.904Z,0.00
2022-12-18T04:30:41.047Z,0.00
2022-12-18T04:31:40.900Z,0.00
2022-12-18T04:32:40.911Z,0.00
2022-12-18T04:33:41.285Z,0.00
2022-12-18T04:34:40.871Z,0.00
2022-12-18T04:35:40.866Z,0.00
2022-12-18T04:36:40.842Z,0.00
2022-12-18T04:37:40.842Z,0.00
2022-12-18T04:38:40.836Z,0.00
2022-12-18T04:39:40.827Z,0.00
2022-12-18T04:40:41.419Z,0.00
2022-12-18T04:41:40.799Z,0.00
2022-12-18T04:42:40.838Z,0.00
2022-12-18T04:43:41.275Z,0.00
2022-12-18T04:44:40.760Z,0.00
2022-12-18T04:45:40.762Z,0.00
2022-12-18T04:46:40.854Z,0.00
2022-12-18T04:47:40.785Z,0.00
2022-12-18T04:48:40.720Z,0.00
2022-12-18T04:49:40.733Z,0.00
2022-12-18T04:50:40.726Z,0.00
2022-12-18T04:51:40.695Z,0.00
2022-12-18T04:52:40.690Z,0.00
2022-12-18T04:53:41.309Z,0.00
2022-12-18T04:54:40.666Z,0.00
2022-12-18T04:55:40.665Z,0.00
2022-12-18T04:56:40.645Z,0.00
2022-12-18T04:57:40.636Z,0.00
2022-12-18T04:58:40.654Z,0.00
2022-12-18T04:59:40.627Z,0.00
2022-12-18T05:00:40.637Z,0.00
2022-12-18T05:01:40.718Z,0.00
2022-12-18T05:02:40.767Z,0.00
2022-12-18T05:03:40.883Z,0.00
2022-12-18T05:04:40.568Z,0.00
2022-12-18T05:05:40.551Z,0.00
2022-12-18T05:06:40.552Z,0.00
2022-12-18T05:07:40.581Z,0.00
2022-12-18T05:08:40.571Z,0.00
2022-12-18T05:09:40.536Z,0.00
2022-12-18T05:10:40.536Z,0.00
2022-12-18T05:11:40.533Z,0.00
2022-12-18T05:12:40.532Z,0.00
2022-12-18T05:13:41.122Z,0.00
2022-12-18T05:14:40.474Z,0.00
2022-12-18T05:15:40.541Z,0.00
2022-12-18T05:16:40.481Z,0.00
2022-12-18T05:17:40.437Z,0.00
2022-12-18T05:18:40.458Z,0.00
2022-12-18T05:19:40.426Z,0.00
2022-12-18T05:20:40.427Z,0.00
2022-12-18T05:21:40.421Z,0.00
2022-12-18T05:22:40.407Z,0.00
2022-12-18T05:23:41.342Z,0.00
2022-12-18T05:24:40.374Z,0.00
2022-12-18T05:25:40.372Z,0.00
2022-12-18T05:26:40.356Z,0.00
2022-12-18T05:27:40.345Z,0.00
2022-12-18T05:28:40.355Z,0.00
2022-12-18T05:29:40.324Z,0.00
2022-12-18T05:30:40.318Z,0.00
2022-12-18T05:31:40.418Z,0.00
2022-12-18T05:32:40.322Z,0.00
2022-12-18T05:33:40.618Z,0.00
2022-12-18T05:34:40.280Z,0.00
2022-12-18T05:35:40.264Z,0.00
2022-12-18T05:36:40.275Z,0.00
2022-12-18T05:37:43.297Z,0.00
2022-12-18T05:38:40.250Z,0.00
2022-12-18T05:39:40.238Z,0.00
2022-12-18T05:40:40.229Z,0.00
2022-12-18T05:41:40.209Z,0.00
2022-12-18T05:42:40.221Z,0.00
2022-12-18T05:43:40.696Z,0.00
2022-12-18T05:44:40.184Z,0.00
2022-12-18T05:45:40.184Z,0.00
2022-12-18T05:46:40.213Z,0.00
2022-12-18T05:47:40.172Z,0.00
2022-12-18T05:48:40.168Z,0.00
2022-12-18T05:49:40.143Z,0.00
2022-12-18T05:50:40.151Z,0.00
2022-12-18T05:51:40.112Z,0.00
2022-12-18T05:52:40.149Z,0.00
2022-12-18T05:53:40.659Z,0.00
2022-12-18T05:54:40.090Z,0.00
2022-12-18T05:55:40.076Z,0.00
2022-12-18T05:56:44.155Z,0.00
2022-12-18T05:57:40.111Z,0.00
2022-12-18T05:58:40.207Z,0.00
2022-12-18T05:59:40.033Z,0.00
2022-12-18T06:00:40.034Z,0.00
2022-12-18T06:01:40.111Z,0.00
2022-12-18T06:02:40.091Z,0.00
2022-12-18T06:03:40.553Z,0.00
2022-12-18T06:04:40.010Z,0.00
2022-12-18T06:05:39.979Z,0.00
2022-12-18T06:06:39.990Z,0.00
2022-12-18T06:07:39.979Z,0.00
2022-12-18T06:08:45.864Z,0.00
2022-12-18T06:09:39.945Z,0.00
2022-12-18T06:10:39.940Z,0.00
2022-12-18T06:11:39.922Z,0.00
2022-12-18T06:12:39.936Z,0.00
2022-12-18T06:13:40.454Z,0.00
2022-12-18T06:14:39.906Z,0.00
2022-12-18T06:15:39.914Z,0.00
2022-12-18T06:16:39.965Z,0.00
2022-12-18T06:17:39.904Z,0.00
2022-12-18T06:18:39.855Z,0.00
2022-12-18T06:19:39.857Z,0.00
2022-12-18T06:20:39.847Z,0.00
2022-12-18T06:21:39.823Z,0.00
2022-12-18T06:22:39.828Z,0.00
2022-12-18T06:23:40.183Z,0.00
2022-12-18T06:24:39.794Z,0.00
2022-12-18T06:25:39.801Z,0.00
2022-12-18T06:26:39.776Z,0.00
2022-12-18T06:27:39.795Z,0.00
2022-12-18T06:28:39.756Z,0.00
2022-12-18T06:29:39.755Z,0.00
2022-12-18T06:30:39.745Z,0.00
2022-12-18T06:31:39.808Z,0.00
2022-12-18T06:32:39.740Z,0.00
2022-12-18T06:33:40.062Z,0.00
2022-12-18T06:34:39.701Z,0.00
2022-12-18T06:35:39.703Z,0.00
2022-12-18T06:36:39.635Z,1.00
2022-12-18T06:37:39.689Z,0.00
2022-12-18T06:38:40.074Z,0.00
2022-12-18T06:39:39.647Z,0.00
2022-12-18T06:40:39.641Z,0.00
2022-12-18T06:41:39.637Z,0.00
2022-12-18T06:42:39.668Z,0.00
2022-12-18T06:43:40.044Z,0.00
2022-12-18T06:44:39.607Z,0.00
2022-12-18T06:45:39.653Z,1.00
2022-12-18T06:46:39.542Z,1.00
2022-12-18T06:47:39.540Z,1.00
2022-12-18T06:48:39.543Z,5.00
2022-12-18T06:49:39.518Z,4.00
2022-12-18T06:50:39.513Z,2.00
2022-12-18T06:51:39.509Z,4.00
2022-12-18T06:52:39.524Z,4.00
2022-12-18T06:53:39.811Z,8.00
2022-12-18T06:54:39.505Z,6.00
2022-12-18T06:55:39.447Z,7.00
2022-12-18T06:56:39.445Z,9.00
2022-12-18T06:57:39.471Z,8.00
2022-12-18T06:58:39.430Z,8.00
2022-12-18T06:59:39.406Z,16.00
2022-12-18T07:00:39.419Z,17.00
2022-12-18T07:01:39.626Z,17.00
2022-12-18T07:02:39.541Z,19.00
2022-12-18T07:03:39.886Z,21.00
2022-12-18T07:04:39.383Z,23.00
2022-12-18T07:05:39.349Z,26.00
2022-12-18T07:06:39.361Z,29.00
2022-12-18T07:07:39.337Z,32.00
2022-12-18T07:08:39.350Z,33.00
2022-12-18T07:09:39.337Z,37.00
2022-12-18T07:10:44.748Z,48.00
2022-12-18T07:11:39.316Z,48.00
2022-12-18T07:12:39.293Z,53.00
2022-12-18T07:13:39.573Z,52.00
2022-12-18T07:14:39.276Z,53.00
2022-12-18T07:15:39.270Z,65.00
2022-12-18T07:16:39.260Z,78.00
2022-12-18T07:17:39.241Z,81.00
2022-12-18T07:18:39.263Z,80.00
2022-12-18T07:19:39.220Z,102.00
2022-12-18T07:20:39.244Z,99.00
2022-12-18T07:21:39.223Z,97.00
2022-12-18T07:22:39.223Z,102.00
2022-12-18T07:23:39.456Z,101.00
2022-12-18T07:24:39.180Z,104.00
2022-12-18T07:25:39.160Z,115.00
2022-12-18T07:26:39.152Z,122.00
2022-12-18T07:27:39.162Z,113.00
2022-12-18T07:28:39.166Z,134.00
2022-12-18T07:29:39.120Z,131.00
2022-12-18T07:30:39.114Z,135.00
2022-12-18T07:31:39.173Z,192.00
2022-12-18T07:32:39.104Z,221.00
2022-12-18T07:33:39.577Z,217.00
2022-12-18T07:34:39.104Z,200.00
2022-12-18T07:35:39.091Z,226.00
2022-12-18T07:36:39.066Z,215.00
2022-12-18T07:37:39.060Z,243.00
2022-12-18T07:38:39.068Z,238.00
2022-12-18T07:39:39.079Z,230.00
2022-12-18T07:40:39.034Z,246.00
2022-12-18T07:41:43.745Z,221.00
2022-12-18T07:42:39.022Z,247.00
2022-12-18T07:43:39.441Z,254.00
2022-12-18T07:44:39.017Z,284.00
2022-12-18T07:45:39.017Z,239.00
2022-12-18T07:46:39.002Z,245.00
2022-12-18T07:47:38.950Z,264.00
2022-12-18T07:48:38.967Z,242.00
2022-12-18T07:49:38.936Z,259.00
2022-12-18T07:50:38.921Z,263.00
2022-12-18T07:51:38.917Z,301.00
2022-12-18T07:52:38.922Z,276.00
2022-12-18T07:53:39.427Z,281.00
2022-12-18T07:54:38.912Z,273.00
2022-12-18T07:56:05.361Z,314.00
2022-12-18T07:56:38.874Z,343.00
2022-12-18T07:57:50.733Z,299.00
2022-12-18T07:58:38.899Z,360.00
2022-12-18T07:59:38.862Z,338.00
2022-12-18T08:00:38.841Z,378.00
2022-12-18T08:01:38.935Z,415.00
2022-12-18T08:02:38.919Z,385.00
2022-12-18T08:03:39.177Z,409.00
2022-12-18T08:04:38.798Z,422.00
2022-12-18T08:05:38.791Z,366.00
2022-12-18T08:06:38.786Z,427.00
2022-12-18T08:07:38.767Z,462.00
2022-12-18T08:08:38.794Z,442.00
2022-12-18T08:09:38.766Z,410.00
2022-12-18T08:10:38.745Z,477.00
2022-12-18T08:11:38.716Z,424.00
2022-12-18T08:12:38.720Z,515.00
2022-12-18T08:13:39.179Z,470.00
2022-12-18T08:14:38.711Z,482.00
2022-12-18T08:15:38.688Z,551.00
2022-12-18T08:16:38.708Z,538.00
2022-12-18T08:17:38.675Z,511.00
2022-12-18T08:18:38.679Z,501.00
2022-12-18T08:19:38.695Z,507.00
2022-12-18T08:20:38.651Z,475.00
2022-12-18T08:21:38.623Z,560.00
2022-12-18T08:22:38.652Z,608.00
2022-12-18T08:23:42.545Z,589.00
2022-12-18T08:24:38.625Z,564.00
2022-12-18T08:25:38.612Z,572.00
2022-12-18T08:26:38.588Z,594.00
2022-12-18T08:27:38.571Z,566.00
2022-12-18T08:28:38.582Z,566.00
2022-12-18T08:29:38.573Z,678.00
2022-12-18T08:30:38.607Z,695.00
2022-12-18T08:31:38.618Z,745.00
2022-12-18T08:32:38.573Z,684.00
2022-12-18T08:33:39.057Z,642.00
2022-12-18T08:34:38.540Z,650.00
2022-12-18T08:35:44.066Z,619.00
2022-12-18T08:36:38.505Z,569.00
2022-12-18T08:37:38.474Z,715.00
2022-12-18T08:38:38.516Z,609.00
2022-12-18T08:39:38.454Z,701.00
2022-12-18T08:40:38.481Z,717.00
2022-12-18T08:41:38.444Z,670.00
2022-12-18T08:42:38.422Z,671.00
2022-12-18T08:43:38.870Z,660.00
2022-12-18T08:44:38.423Z,628.00
2022-12-18T08:45:38.404Z,738.00
2022-12-18T08:46:38.442Z,784.00
2022-12-18T08:47:38.402Z,677.00
2022-12-18T08:48:38.470Z,712.00
2022-12-18T08:49:38.356Z,653.00
2022-12-18T08:50:38.356Z,679.00
2022-12-18T08:51:38.356Z,754.00
2022-12-18T08:52:38.333Z,737.00
2022-12-18T08:53:38.848Z,856.00
2022-12-18T08:54:38.325Z,807.00
2022-12-18T08:55:38.319Z,828.00
2022-12-18T08:56:38.296Z,812.00
2022-12-18T08:57:38.296Z,788.00
2022-12-18T08:58:38.298Z,729.00
2022-12-18T08:59:38.295Z,818.00
2022-12-18T09:00:38.254Z,781.00
2022-12-18T09:01:38.320Z,798.00
2022-12-18T09:02:38.324Z,858.00
2022-12-18T09:03:38.666Z,867.00
2022-12-18T09:04:38.235Z,895.00
2022-12-18T09:05:38.205Z,868.00
2022-12-18T09:06:38.198Z,985.00
2022-12-18T09:07:38.190Z,916.00
2022-12-18T09:08:38.505Z,995.00
2022-12-18T09:09:38.185Z,791.00
2022-12-18T09:10:43.176Z,810.00
2022-12-18T09:11:38.153Z,1071.00
2022-12-18T09:12:38.136Z,1463.00
2022-12-18T09:13:38.540Z,1102.00
2022-12-18T09:14:38.114Z,1157.00
2022-12-18T09:15:38.114Z,1279.00
2022-12-18T09:16:38.144Z,1229.00
2022-12-18T09:17:38.089Z,1015.00
2022-12-18T09:18:38.557Z,1412.00
2022-12-18T09:19:38.085Z,1391.00
2022-12-18T09:20:38.060Z,1319.00
2022-12-18T09:21:38.071Z,1595.00
2022-12-18T09:22:38.057Z,1394.00
2022-12-18T09:23:38.065Z,1328.00
2022-12-18T09:24:38.024Z,1376.00
2022-12-18T09:25:38.021Z,1312.00
2022-12-18T09:26:38.122Z,1158.00
2022-12-18T09:27:38.016Z,1649.00
2022-12-18T09:28:38.445Z,1387.00
2022-12-18T09:29:37.992Z,1247.00
2022-12-18T09:30:38.004Z,1249.00
2022-12-18T09:31:38.024Z,1506.00
2022-12-18T09:32:37.937Z,1354.00
2022-12-18T09:33:37.958Z,1312.00
2022-12-18T09:34:37.920Z,1347.00
2022-12-18T09:35:37.914Z,1430.00
2022-12-18T09:36:37.911Z,1196.00
2022-12-18T09:37:37.897Z,1438.00
2022-12-18T09:38:38.235Z,1182.00
2022-12-18T09:39:37.878Z,1166.00
2022-12-18T09:40:37.877Z,1115.00
2022-12-18T09:41:37.873Z,1345.00
2022-12-18T09:42:37.856Z,991.00
2022-12-18T09:43:37.875Z,1168.00
2022-12-18T09:44:44.705Z,1335.00
2022-12-18T09:45:37.851Z,1207.00
2022-12-18T09:46:37.862Z,998.00
2022-12-18T09:47:37.824Z,1091.00
2022-12-18T09:48:38.187Z,1408.00
2022-12-18T09:49:37.817Z,1164.00
2022-12-18T09:50:37.763Z,1335.00
2022-12-18T09:51:37.777Z,1190.00
2022-12-18T09:52:37.764Z,1074.00
2022-12-18T09:53:37.780Z,1312.00
2022-12-18T09:54:37.720Z,1448.00
2022-12-18T09:55:37.801Z,1360.00
2022-12-18T09:56:37.711Z,1052.00
2022-12-18T09:57:37.712Z,1315.00
2022-12-18T09:58:38.186Z,1323.00
2022-12-18T09:59:37.690Z,1208.00
2022-12-18T10:00:37.697Z,1470.00
2022-12-18T10:01:44.020Z,1282.00
2022-12-18T10:02:37.803Z,1083.00
2022-12-18T10:03:37.669Z,1406.00
2022-12-18T10:04:37.801Z,1284.00
2022-12-18T10:05:37.663Z,1127.00
2022-12-18T10:06:37.637Z,1324.00
2022-12-18T10:07:37.615Z,1011.00
2022-12-18T10:08:37.889Z,1116.00
2022-12-18T10:09:37.640Z,1101.00
2022-12-18T10:10:37.602Z,1482.00
2022-12-18T10:11:37.574Z,1105.00
2022-12-18T10:12:37.563Z,1486.00
2022-12-18T10:13:37.654Z,1268.00
2022-12-18T10:14:37.557Z,1585.00
2022-12-18T10:15:37.637Z,1285.00
2022-12-18T10:16:37.512Z,1242.00
2022-12-18T10:17:37.519Z,1117.00
2022-12-18T10:18:37.740Z,1258.00
2022-12-18T10:19:37.490Z,1044.00
2022-12-18T10:20:37.476Z,1230.00
2022-12-18T10:21:37.484Z,1048.00
2022-12-18T10:22:37.460Z,1040.00
2022-12-18T10:23:37.476Z,1207.00
2022-12-18T10:24:37.444Z,1365.00
2022-12-18T10:25:37.432Z,1237.00
2022-12-18T10:26:37.420Z,1196.00
2022-12-18T10:27:37.414Z,1289.00
2022-12-18T10:28:37.774Z,1160.00
2022-12-18T10:29:37.394Z,1095.00
2022-12-18T10:30:37.383Z,1159.00
2022-12-18T10:31:37.474Z,983.00
2022-12-18T10:32:37.358Z,1136.00
2022-12-18T10:33:37.359Z,997.00
2022-12-18T10:34:37.393Z,1147.00
2022-12-18T10:35:37.334Z,964.00
2022-12-18T10:36:37.323Z,1283.00
2022-12-18T10:37:37.322Z,1234.00
2022-12-18T10:38:37.448Z,1008.00
2022-12-18T10:39:37.313Z,966.00
2022-12-18T10:40:37.316Z,1047.00
2022-12-18T10:41:37.277Z,1059.00
2022-12-18T10:42:37.344Z,1263.00
2022-12-18T10:43:37.262Z,1143.00
2022-12-18T10:44:37.309Z,1062.00
2022-12-18T10:45:37.292Z,1178.00
2022-12-18T10:46:37.302Z,1129.00
2022-12-18T10:47:37.216Z,1184.00
2022-12-18T10:48:37.515Z,1124.00
2022-12-18T10:49:37.215Z,1230.00
2022-12-18T10:51:09.138Z,1370.00
2022-12-18T10:51:37.192Z,1064.00
2022-12-18T10:52:42.043Z,1316.00
2022-12-18T10:53:37.182Z,1406.00
2022-12-18T10:54:37.170Z,1244.00
2022-12-18T10:55:37.160Z,1007.00
2022-12-18T10:56:37.128Z,1325.00
2022-12-18T10:57:37.128Z,1081.00
2022-12-18T10:58:37.116Z,1268.00
2022-12-18T10:59:37.142Z,1265.00
2022-12-18T11:00:37.107Z,1272.00
2022-12-18T11:01:37.199Z,1111.00
2022-12-18T11:02:37.319Z,1231.00
2022-12-18T11:03:37.179Z,1300.00
2022-12-18T11:04:37.080Z,1175.00
2022-12-18T11:05:37.054Z,1240.00
2022-12-18T11:06:37.037Z,1340.00
2022-12-18T11:07:37.033Z,960.00
2022-12-18T11:08:37.044Z,1199.00
2022-12-18T11:09:37.060Z,1177.00
2022-12-18T11:10:37.001Z,1038.00
2022-12-18T11:11:37.000Z,933.00
2022-12-18T11:12:36.999Z,1085.00
2022-12-18T11:13:36.967Z,970.00
2022-12-18T11:14:38.336Z,1251.00
2022-12-18T11:15:37.040Z,1187.00
2022-12-18T11:16:37.039Z,1227.00
2022-12-18T11:17:36.937Z,1121.00
2022-12-18T11:18:36.945Z,1242.00
2022-12-18T11:19:36.933Z,1149.00
2022-12-18T11:20:36.946Z,1234.00
2022-12-18T11:21:36.918Z,1103.00
2022-12-18T11:22:36.884Z,1288.00
2022-12-18T11:23:36.911Z,1053.00
2022-12-18T11:24:36.884Z,1123.00
2022-12-18T11:25:36.851Z,1243.00
2022-12-18T11:26:36.853Z,1228.00
2022-12-18T11:27:36.829Z,1151.00
2022-12-18T11:28:36.841Z,1134.00
2022-12-18T11:29:40.637Z,1176.00
2022-12-18T11:30:36.851Z,1319.00
2022-12-18T11:31:36.931Z,1115.00
2022-12-18T11:32:36.791Z,1091.00
2022-12-18T11:33:36.785Z,1137.00
2022-12-18T11:34:36.788Z,1172.00
2022-12-18T11:35:36.781Z,1090.00
2022-12-18T11:36:36.735Z,1077.00
2022-12-18T11:37:36.766Z,1165.00
2022-12-18T11:38:36.734Z,1099.00
2022-12-18T11:39:36.768Z,1080.00
2022-12-18T11:40:41.094Z,1026.00
2022-12-18T11:41:36.698Z,1020.00
2022-12-18T11:42:36.704Z,1013.00
2022-12-18T11:43:36.696Z,949.00
2022-12-18T11:44:36.699Z,1146.00
2022-12-18T11:45:36.671Z,937.00
2022-12-18T11:46:36.669Z,1065.00
2022-12-18T11:47:36.638Z,1214.00
2022-12-18T11:48:36.639Z,946.00
2022-12-18T11:49:36.682Z,1009.00
2022-12-18T11:50:36.622Z,1140.00
2022-12-18T11:51:36.598Z,1325.00
2022-12-18T11:52:36.595Z,1096.00
2022-12-18T11:53:36.593Z,868.00
2022-12-18T11:54:36.604Z,1064.00
2022-12-18T11:55:36.585Z,988.00
2022-12-18T11:56:36.547Z,1019.00
2022-12-18T11:57:36.588Z,1051.00
2022-12-18T11:58:36.572Z,921.00
2022-12-18T11:59:36.577Z,914.00
2022-12-18T12:00:36.527Z,1007.00
2022-12-18T12:01:42.100Z,969.00
2022-12-18T12:02:36.720Z,765.00
2022-12-18T12:03:36.606Z,1017.00
2022-12-18T12:04:36.581Z,999.00
2022-12-18T12:05:36.468Z,928.00
2022-12-18T12:06:36.458Z,1119.00
2022-12-18T12:07:36.469Z,866.00
2022-12-18T12:08:36.431Z,1038.00
2022-12-18T12:09:36.457Z,1242.00
2022-12-18T12:10:36.413Z,971.00
2022-12-18T12:11:36.480Z,1048.00
2022-12-18T12:12:36.389Z,1125.00
2022-12-18T12:13:36.408Z,736.00
2022-12-18T12:14:36.420Z,978.00
2022-12-18T12:15:36.362Z,999.00
2022-12-18T12:16:36.422Z,868.00
2022-12-18T12:17:36.355Z,1043.00
2022-12-18T12:18:36.337Z,1030.00
2022-12-18T12:19:36.394Z,673.00
2022-12-18T12:20:36.992Z,869.00
2022-12-18T12:21:36.334Z,1004.00
2022-12-18T12:22:36.296Z,876.00
2022-12-18T12:23:36.295Z,1144.00
2022-12-18T12:24:36.310Z,986.00
2022-12-18T12:25:36.318Z,902.00
2022-12-18T12:26:36.302Z,923.00
2022-12-18T12:27:36.282Z,979.00
2022-12-18T12:28:36.245Z,1087.00
2022-12-18T12:29:36.292Z,904.00
2022-12-18T12:30:36.259Z,733.00
2022-12-18T12:31:36.235Z,961.00
2022-12-18T12:32:36.205Z,1179.00
2022-12-18T12:33:36.211Z,747.00
2022-12-18T12:34:36.210Z,944.00
2022-12-18T12:35:36.190Z,907.00
2022-12-18T12:36:36.200Z,648.00
2022-12-18T12:37:36.184Z,833.00
2022-12-18T12:38:36.145Z,712.00
2022-12-18T12:39:36.224Z,495.00
2022-12-18T12:40:57.074Z,560.00
2022-12-18T12:41:36.141Z,527.00
2022-12-18T12:42:36.107Z,843.00
2022-12-18T12:43:36.140Z,646.00
2022-12-18T12:44:36.110Z,647.00
2022-12-18T12:45:36.122Z,599.00
2022-12-18T12:46:36.066Z,654.00
2022-12-18T12:47:36.083Z,811.00
2022-12-18T12:48:36.046Z,693.00
2022-12-18T12:49:40.628Z,576.00
2022-12-18T12:50:36.044Z,691.00